sensor_id;sensor_type;location;lat;lon;timestamp;P1;durP1;ratioP1;P2;durP2;ratioP2
7703;SDS011;3894;49.700;10.770;2022-11-06T09:22:15;18.33;;;7.72;;
7703;SDS011;3894;49.700;10.770;2022-11-06T09:24:40;18.58;;;8.13;;
7703;SDS011;3894;49.700;10.770;2022-11-06T09:27:06;18.75;;;9.20;;
7703;SDS011;3894;49.700;10.770;2022-11-06T09:29:31;17.65;;;7.40;;
7703;SDS011;3894;49.700;10.770;2022-11-06T09:31:57;20.05;;;8.30;;
7703;SDS011;3894;49.700;10.770;2022-11-06T09:34:22;20.85;;;10.27;;
7703;SDS011;3894;49.700;10.770;2022-11-06T09:36:48;21.20;;;8.90;;
7703;SDS011;3894;49.700;10.770;2022-11-06T09:39:14;21.02;;;10.52;;
7703;SDS011;3894;49.700;10.770;2022-11-06T09:42:23;23.67;;;9.43;;
7703;SDS011;3894;49.700;10.770;2022-11-06T09:47:19;20.80;;;9.02;;
7703;SDS011;3894;49.700;10.770;2022-11-06T09:49:49;22.20;;;11.52;;
7703;SDS011;3894;49.700;10.770;2022-11-06T09:54:55;24.85;;;9.45;;
7703;SDS011;3894;49.700;10.770;2022-11-06T09:57:32;20.70;;;8.95;;
7703;SDS011;3894;49.700;10.770;2022-11-06T10:00:06;20.08;;;9.27;;
7703;SDS011;3894;49.700;10.770;2022-11-06T10:02:51;89.80;;;13.32;;
7703;SDS011;3894;49.700;10.770;2022-11-06T10:05:27;19.20;;;10.45;;
7703;SDS011;3894;49.700;10.770;2022-11-06T10:07:57;18.52;;;8.05;;
7703;SDS011;3894;49.700;10.770;2022-11-06T10:10:44;15.88;;;7.32;;
7703;SDS011;3894;49.700;10.770;2022-11-06T10:19:06;17.98;;;9.63;;
7703;SDS011;3894;49.700;10.770;2022-11-06T10:24:58;20.00;;;9.27;;
7703;SDS011;3894;49.700;10.770;2022-11-06T10:27:38;16.77;;;6.75;;
7703;SDS011;3894;49.700;10.770;2022-11-06T10:35:36;16.95;;;7.95;;
7703;SDS011;3894;49.700;10.770;2022-11-06T10:38:10;16.50;;;7.07;;
7703;SDS011;3894;49.700;10.770;2022-11-06T10:40:36;18.63;;;7.25;;
7703;SDS011;3894;49.700;10.770;2022-11-06T10:48:53;17.20;;;7.25;;
7703;SDS011;3894;49.700;10.770;2022-11-06T10:59:35;20.23;;;8.90;;
7703;SDS011;3894;49.700;10.770;2022-11-06T11:02:01;20.15;;;9.30;;
7703;SDS011;3894;49.700;10.770;2022-11-06T11:04:27;24.00;;;10.45;;
7703;SDS011;3894;49.700;10.770;2022-11-06T11:06:56;22.17;;;9.02;;
7703;SDS011;3894;49.700;10.770;2022-11-06T11:09:30;23.85;;;9.32;;
7703;SDS011;3894;49.700;10.770;2022-11-06T11:11:58;20.98;;;8.95;;
7703;SDS011;3894;49.700;10.770;2022-11-06T11:14:32;23.80;;;9.23;;
7703;SDS011;3894;49.700;10.770;2022-11-06T11:16:58;23.88;;;8.93;;
7703;SDS011;3894;49.700;10.770;2022-11-06T11:27:25;23.42;;;9.35;;
7703;SDS011;3894;49.700;10.770;2022-11-06T11:29:52;21.95;;;8.73;;
7703;SDS011;3894;49.700;10.770;2022-11-06T11:32:18;21.67;;;9.20;;
7703;SDS011;3894;49.700;10.770;2022-11-06T11:34:48;22.65;;;8.07;;
7703;SDS011;3894;49.700;10.770;2022-11-06T11:37:25;21.27;;;9.57;;
7703;SDS011;3894;49.700;10.770;2022-11-06T11:39:51;22.00;;;9.60;;
7703;SDS011;3894;49.700;10.770;2022-11-06T11:42:23;23.90;;;10.68;;
7703;SDS011;3894;49.700;10.770;2022-11-06T11:47:32;22.88;;;10.07;;
7703;SDS011;3894;49.700;10.770;2022-11-06T11:50:14;26.83;;;11.70;;
7703;SDS011;3894;49.700;10.770;2022-11-06T11:52:54;25.98;;;10.93;;
7703;SDS011;3894;49.700;10.770;2022-11-06T11:55:29;20.42;;;8.63;;
7703;SDS011;3894;49.700;10.770;2022-11-06T11:58:00;17.60;;;7.90;;
7703;SDS011;3894;49.700;10.770;2022-11-06T12:00:26;21.52;;;9.25;;
7703;SDS011;3894;49.700;10.770;2022-11-06T12:02:57;20.92;;;9.02;;
7703;SDS011;3894;49.700;10.770;2022-11-06T12:05:32;22.00;;;9.15;;
7703;SDS011;3894;49.700;10.770;2022-11-06T12:08:11;21.80;;;8.38;;
7703;SDS011;3894;49.700;10.770;2022-11-06T12:10:46;21.30;;;9.10;;
7703;SDS011;3894;49.700;10.770;2022-11-06T12:15:39;18.33;;;8.32;;
7703;SDS011;3894;49.700;10.770;2022-11-06T12:18:18;18.42;;;8.98;;
7703;SDS011;3894;49.700;10.770;2022-11-06T12:20:52;22.88;;;11.27;;
7703;SDS011;3894;49.700;10.770;2022-11-06T12:25:55;17.08;;;7.22;;
7703;SDS011;3894;49.700;10.770;2022-11-06T12:28:28;20.85;;;7.60;;
7703;SDS011;3894;49.700;10.770;2022-11-06T12:30:59;15.82;;;7.25;;
7703;SDS011;3894;49.700;10.770;2022-11-06T12:33:45;18.08;;;6.68;;
7703;SDS011;3894;49.700;10.770;2022-11-06T12:36:12;13.90;;;6.13;;
7703;SDS011;3894;49.700;10.770;2022-11-06T12:38:50;20.02;;;8.38;;
7703;SDS011;3894;49.700;10.770;2022-11-06T12:41:36;18.23;;;7.75;;
7703;SDS011;3894;49.700;10.770;2022-11-06T12:44:08;21.60;;;11.02;;
7703;SDS011;3894;49.700;10.770;2022-11-06T12:50:01;16.33;;;6.97;;
7703;SDS011;3894;49.700;10.770;2022-11-06T13:00:56;14.55;;;6.60;;
7703;SDS011;3894;49.700;10.770;2022-11-06T13:06:48;13.45;;;5.68;;
7703;SDS011;3894;49.700;10.770;2022-11-06T13:09:23;14.85;;;6.32;;
7703;SDS011;3894;49.700;10.770;2022-11-06T13:12:24;14.35;;;6.80;;
7703;SDS011;3894;49.700;10.770;2022-11-06T13:15:17;13.73;;;6.22;;
7703;SDS011;3894;49.700;10.770;2022-11-06T13:17:54;15.77;;;6.57;;
7703;SDS011;3894;49.700;10.770;2022-11-06T13:23:12;16.38;;;6.30;;
7703;SDS011;3894;49.700;10.770;2022-11-06T13:31:12;16.23;;;6.63;;
7703;SDS011;3894;49.700;10.770;2022-11-06T13:33:50;15.23;;;5.88;;
7703;SDS011;3894;49.700;10.770;2022-11-06T13:36:20;16.95;;;6.10;;
7703;SDS011;3894;49.700;10.770;2022-11-06T13:38:52;17.50;;;6.85;;
7703;SDS011;3894;49.700;10.770;2022-11-06T13:41:21;16.40;;;6.00;;
7703;SDS011;3894;49.700;10.770;2022-11-06T13:43:51;13.93;;;5.85;;
7703;SDS011;3894;49.700;10.770;2022-11-06T13:52:09;15.48;;;5.38;;
7703;SDS011;3894;49.700;10.770;2022-11-06T13:55:02;16.48;;;5.85;;
7703;SDS011;3894;49.700;10.770;2022-11-06T13:57:32;13.05;;;5.15;;
7703;SDS011;3894;49.700;10.770;2022-11-06T14:05:58;19.65;;;8.65;;
7703;SDS011;3894;49.700;10.770;2022-11-06T14:08:52;11.85;;;5.38;;
7703;SDS011;3894;49.700;10.770;2022-11-06T14:11:27;12.23;;;5.35;;
7703;SDS011;3894;49.700;10.770;2022-11-06T14:14:05;11.35;;;4.85;;
7703;SDS011;3894;49.700;10.770;2022-11-06T14:16:36;15.93;;;5.93;;
7703;SDS011;3894;49.700;10.770;2022-11-06T14:24:04;13.63;;;5.60;;
7703;SDS011;3894;49.700;10.770;2022-11-06T14:26:35;13.73;;;6.30;;
7703;SDS011;3894;49.700;10.770;2022-11-06T14:32:03;13.82;;;5.47;;
7703;SDS011;3894;49.700;10.770;2022-11-06T14:34:45;11.68;;;5.28;;
7703;SDS011;3894;49.700;10.770;2022-11-06T14:50:07;14.52;;;6.00;;
7703;SDS011;3894;49.700;10.770;2022-11-06T14:52:41;11.82;;;4.55;;
7703;SDS011;3894;49.700;10.770;2022-11-06T14:55:17;13.30;;;5.22;;
7703;SDS011;3894;49.700;10.770;2022-11-06T14:58:10;12.15;;;5.63;;
7703;SDS011;3894;49.700;10.770;2022-11-06T15:03:21;12.18;;;5.03;;
7703;SDS011;3894;49.700;10.770;2022-11-06T15:13:54;13.68;;;5.75;;
7703;SDS011;3894;49.700;10.770;2022-11-06T15:16:22;12.35;;;4.53;;
7703;SDS011;3894;49.700;10.770;2022-11-06T15:18:51;14.40;;;5.07;;
7703;SDS011;3894;49.700;10.770;2022-11-06T15:21:20;11.48;;;5.10;;
7703;SDS011;3894;49.700;10.770;2022-11-06T15:24:23;12.93;;;5.45;;
7703;SDS011;3894;49.700;10.770;2022-11-06T15:26:44;12.45;;;5.05;;
7703;SDS011;3894;49.700;10.770;2022-11-06T15:31:40;14.70;;;6.00;;
7703;SDS011;3894;49.700;10.770;2022-11-06T15:34:22;13.35;;;5.60;;
7703;SDS011;3894;49.700;10.770;2022-11-06T15:36:58;12.18;;;4.57;;
7703;SDS011;3894;49.700;10.770;2022-11-06T15:39:38;12.80;;;5.13;;
7703;SDS011;3894;49.700;10.770;2022-11-06T15:42:08;12.63;;;5.13;;
7703;SDS011;3894;49.700;10.770;2022-11-06T15:44:39;14.50;;;5.70;;
7703;SDS011;3894;49.700;10.770;2022-11-06T15:47:17;13.85;;;5.13;;
7703;SDS011;3894;49.700;10.770;2022-11-06T15:49:47;13.82;;;5.80;;
7703;SDS011;3894;49.700;10.770;2022-11-06T15:52:28;14.95;;;6.00;;
7703;SDS011;3894;49.700;10.770;2022-11-06T15:54:54;18.55;;;6.55;;
7703;SDS011;3894;49.700;10.770;2022-11-06T15:57:21;16.58;;;6.55;;
7703;SDS011;3894;49.700;10.770;2022-11-06T15:59:49;15.57;;;6.95;;
7703;SDS011;3894;49.700;10.770;2022-11-06T16:02:30;16.60;;;6.50;;
7703;SDS011;3894;49.700;10.770;2022-11-06T16:04:55;18.08;;;8.88;;
7703;SDS011;3894;49.700;10.770;2022-11-06T16:07:21;20.13;;;10.00;;
7703;SDS011;3894;49.700;10.770;2022-11-06T16:09:47;18.05;;;7.90;;
7703;SDS011;3894;49.700;10.770;2022-11-06T16:12:14;21.00;;;8.20;;
7703;SDS011;3894;49.700;10.770;2022-11-06T16:14:42;22.55;;;10.80;;
7703;SDS011;3894;49.700;10.770;2022-11-06T16:17:09;21.48;;;8.88;;
7703;SDS011;3894;49.700;10.770;2022-11-06T16:19:42;29.33;;;10.93;;
7703;SDS011;3894;49.700;10.770;2022-11-06T16:22:10;19.15;;;9.32;;
7703;SDS011;3894;49.700;10.770;2022-11-06T16:24:45;25.25;;;14.55;;
7703;SDS011;3894;49.700;10.770;2022-11-06T16:27:15;34.58;;;16.67;;
7703;SDS011;3894;49.700;10.770;2022-11-06T16:29:48;25.65;;;10.85;;
7703;SDS011;3894;49.700;10.770;2022-11-06T16:32:20;23.75;;;11.65;;
7703;SDS011;3894;49.700;10.770;2022-11-06T16:34:49;23.48;;;10.77;;
7703;SDS011;3894;49.700;10.770;2022-11-06T16:49:41;18.77;;;8.52;;
7703;SDS011;3894;49.700;10.770;2022-11-06T16:54:46;16.52;;;8.63;;
7703;SDS011;3894;49.700;10.770;2022-11-06T16:57:22;14.38;;;7.28;;
7703;SDS011;3894;49.700;10.770;2022-11-06T17:02:33;17.00;;;7.03;;
7703;SDS011;3894;49.700;10.770;2022-11-06T17:05:05;15.90;;;7.55;;
7703;SDS011;3894;49.700;10.770;2022-11-06T17:07:36;16.88;;;7.97;;
7703;SDS011;3894;49.700;10.770;2022-11-06T17:12:56;17.83;;;8.38;;
7703;SDS011;3894;49.700;10.770;2022-11-06T17:15:22;19.23;;;8.82;;
7703;SDS011;3894;49.700;10.770;2022-11-06T17:17:48;15.27;;;7.68;;
7703;SDS011;3894;49.700;10.770;2022-11-06T17:20:15;16.40;;;7.35;;
7703;SDS011;3894;49.700;10.770;2022-11-06T17:22:43;16.23;;;7.15;;
7703;SDS011;3894;49.700;10.770;2022-11-06T17:25:09;15.52;;;7.35;;
7703;SDS011;3894;49.700;10.770;2022-11-06T17:27:35;17.17;;;7.43;;
7703;SDS011;3894;49.700;10.770;2022-11-06T17:30:00;21.50;;;11.18;;
7703;SDS011;3894;49.700;10.770;2022-11-06T17:32:26;19.60;;;10.75;;
7703;SDS011;3894;49.700;10.770;2022-11-06T17:34:51;20.25;;;10.02;;
7703;SDS011;3894;49.700;10.770;2022-11-06T17:37:17;23.45;;;12.27;;
7703;SDS011;3894;49.700;10.770;2022-11-06T17:39:46;25.55;;;12.40;;
7703;SDS011;3894;49.700;10.770;2022-11-06T17:42:12;26.73;;;12.30;;
7703;SDS011;3894;49.700;10.770;2022-11-06T17:44:37;27.83;;;14.73;;
7703;SDS011;3894;49.700;10.770;2022-11-06T17:47:03;27.25;;;13.20;;
7703;SDS011;3894;49.700;10.770;2022-11-06T17:49:28;27.48;;;13.82;;
7703;SDS011;3894;49.700;10.770;2022-11-06T17:51:54;22.20;;;11.13;;
7703;SDS011;3894;49.700;10.770;2022-11-06T17:54:29;26.88;;;12.10;;
7703;SDS011;3894;49.700;10.770;2022-11-06T17:56:57;25.40;;;12.57;;
7703;SDS011;3894;49.700;10.770;2022-11-06T17:59:24;27.52;;;12.88;;
7703;SDS011;3894;49.700;10.770;2022-11-06T18:01:50;24.30;;;12.60;;
7703;SDS011;3894;49.700;10.770;2022-11-06T18:04:17;25.77;;;11.35;;
7703;SDS011;3894;49.700;10.770;2022-11-06T18:06:44;21.33;;;10.07;;
7703;SDS011;3894;49.700;10.770;2022-11-06T18:09:11;20.90;;;10.32;;
7703;SDS011;3894;49.700;10.770;2022-11-06T18:11:38;24.40;;;11.88;;
7703;SDS011;3894;49.700;10.770;2022-11-06T18:14:05;21.50;;;9.55;;
7703;SDS011;3894;49.700;10.770;2022-11-06T18:16:31;21.05;;;9.77;;
7703;SDS011;3894;49.700;10.770;2022-11-06T18:18:58;25.77;;;12.88;;
7703;SDS011;3894;49.700;10.770;2022-11-06T18:21:24;26.35;;;12.40;;
7703;SDS011;3894;49.700;10.770;2022-11-06T18:23:49;24.95;;;12.27;;
7703;SDS011;3894;49.700;10.770;2022-11-06T18:26:15;29.27;;;14.82;;
7703;SDS011;3894;49.700;10.770;2022-11-06T18:28:41;26.45;;;13.07;;
7703;SDS011;3894;49.700;10.770;2022-11-06T18:31:07;25.38;;;12.57;;
7703;SDS011;3894;49.700;10.770;2022-11-06T18:33:32;24.60;;;12.68;;
7703;SDS011;3894;49.700;10.770;2022-11-06T18:36:02;19.08;;;8.98;;
7703;SDS011;3894;49.700;10.770;2022-11-06T18:38:29;19.83;;;9.57;;
7703;SDS011;3894;49.700;10.770;2022-11-06T18:40:54;30.33;;;14.75;;
7703;SDS011;3894;49.700;10.770;2022-11-06T18:43:20;25.70;;;13.63;;
7703;SDS011;3894;49.700;10.770;2022-11-06T18:45:46;24.88;;;10.77;;
7703;SDS011;3894;49.700;10.770;2022-11-06T18:48:12;23.25;;;9.60;;
7703;SDS011;3894;49.700;10.770;2022-11-06T18:50:37;23.30;;;11.43;;
7703;SDS011;3894;49.700;10.770;2022-11-06T18:53:03;23.23;;;11.25;;
7703;SDS011;3894;49.700;10.770;2022-11-06T18:55:29;24.58;;;10.80;;
7703;SDS011;3894;49.700;10.770;2022-11-06T18:57:55;24.40;;;11.73;;
7703;SDS011;3894;49.700;10.770;2022-11-06T19:00:21;27.33;;;11.75;;
7703;SDS011;3894;49.700;10.770;2022-11-06T19:02:47;22.98;;;11.48;;
7703;SDS011;3894;49.700;10.770;2022-11-06T19:05:13;23.88;;;10.65;;
7703;SDS011;3894;49.700;10.770;2022-11-06T19:07:39;23.90;;;10.82;;
7703;SDS011;3894;49.700;10.770;2022-11-06T19:10:04;23.10;;;11.93;;
7703;SDS011;3894;49.700;10.770;2022-11-06T19:12:30;25.58;;;13.07;;
7703;SDS011;3894;49.700;10.770;2022-11-06T19:14:56;31.30;;;15.15;;
7703;SDS011;3894;49.700;10.770;2022-11-06T19:17:21;25.77;;;13.25;;
7703;SDS011;3894;49.700;10.770;2022-11-06T19:19:47;28.35;;;13.52;;
7703;SDS011;3894;49.700;10.770;2022-11-06T19:22:13;27.42;;;12.82;;
7703;SDS011;3894;49.700;10.770;2022-11-06T19:24:38;29.95;;;13.57;;
7703;SDS011;3894;49.700;10.770;2022-11-06T19:27:04;22.88;;;10.45;;
7703;SDS011;3894;49.700;10.770;2022-11-06T19:29:30;24.45;;;11.00;;
7703;SDS011;3894;49.700;10.770;2022-11-06T19:31:55;20.80;;;10.50;;
7703;SDS011;3894;49.700;10.770;2022-11-06T19:34:25;21.83;;;10.23;;
7703;SDS011;3894;49.700;10.770;2022-11-06T19:36:52;22.85;;;12.15;;
7703;SDS011;3894;49.700;10.770;2022-11-06T19:39:18;25.23;;;13.10;;
7703;SDS011;3894;49.700;10.770;2022-11-06T19:41:44;25.58;;;11.85;;
7703;SDS011;3894;49.700;10.770;2022-11-06T19:44:09;21.55;;;10.57;;
7703;SDS011;3894;49.700;10.770;2022-11-06T19:46:38;28.08;;;12.43;;
7703;SDS011;3894;49.700;10.770;2022-11-06T19:49:04;23.70;;;11.77;;
7703;SDS011;3894;49.700;10.770;2022-11-06T19:51:31;24.48;;;11.35;;
7703;SDS011;3894;49.700;10.770;2022-11-06T19:53:58;21.77;;;11.05;;
7703;SDS011;3894;49.700;10.770;2022-11-06T19:56:25;21.83;;;10.27;;
7703;SDS011;3894;49.700;10.770;2022-11-06T19:58:51;21.25;;;10.23;;
7703;SDS011;3894;49.700;10.770;2022-11-06T20:01:17;19.27;;;9.57;;
7703;SDS011;3894;49.700;10.770;2022-11-06T20:03:44;22.73;;;10.52;;
7703;SDS011;3894;49.700;10.770;2022-11-06T20:06:10;21.40;;;9.43;;
7703;SDS011;3894;49.700;10.770;2022-11-06T20:08:36;22.33;;;9.93;;
7703;SDS011;3894;49.700;10.770;2022-11-06T20:11:12;22.20;;;9.30;;
7703;SDS011;3894;49.700;10.770;2022-11-06T20:13:39;21.63;;;10.05;;
7703;SDS011;3894;49.700;10.770;2022-11-06T20:16:06;24.98;;;13.52;;
7703;SDS011;3894;49.700;10.770;2022-11-06T20:18:35;26.13;;;11.43;;
7703;SDS011;3894;49.700;10.770;2022-11-06T20:21:02;23.15;;;9.43;;
7703;SDS011;3894;49.700;10.770;2022-11-06T20:23:31;21.35;;;9.20;;
7703;SDS011;3894;49.700;10.770;2022-11-06T20:26:01;24.65;;;10.75;;
7703;SDS011;3894;49.700;10.770;2022-11-06T20:28:28;28.17;;;12.60;;
7703;SDS011;3894;49.700;10.770;2022-11-06T20:30:54;28.10;;;12.52;;
7703;SDS011;3894;49.700;10.770;2022-11-06T20:33:20;28.77;;;14.75;;
7703;SDS011;3894;49.700;10.770;2022-11-06T20:35:46;28.15;;;12.60;;
7703;SDS011;3894;49.700;10.770;2022-11-06T20:38:12;25.17;;;11.48;;
7703;SDS011;3894;49.700;10.770;2022-11-06T20:40:38;22.08;;;11.02;;
7703;SDS011;3894;49.700;10.770;2022-11-06T20:43:04;25.25;;;11.50;;
7703;SDS011;3894;49.700;10.770;2022-11-06T20:45:30;21.98;;;10.60;;
7703;SDS011;3894;49.700;10.770;2022-11-06T20:48:01;21.55;;;10.52;;
7703;SDS011;3894;49.700;10.770;2022-11-06T20:50:27;26.67;;;12.32;;
7703;SDS011;3894;49.700;10.770;2022-11-06T20:52:53;23.88;;;10.60;;
7703;SDS011;3894;49.700;10.770;2022-11-06T20:55:19;23.88;;;11.30;;
7703;SDS011;3894;49.700;10.770;2022-11-06T20:57:44;23.85;;;10.35;;
7703;SDS011;3894;49.700;10.770;2022-11-06T21:00:10;21.33;;;10.15;;
7703;SDS011;3894;49.700;10.770;2022-11-06T21:02:37;23.70;;;10.90;;
7703;SDS011;3894;49.700;10.770;2022-11-06T21:05:02;25.25;;;10.38;;
7703;SDS011;3894;49.700;10.770;2022-11-06T21:07:29;24.38;;;9.85;;
7703;SDS011;3894;49.700;10.770;2022-11-06T21:09:54;24.52;;;11.15;;
7703;SDS011;3894;49.700;10.770;2022-11-06T21:12:21;25.17;;;11.48;;
7703;SDS011;3894;49.700;10.770;2022-11-06T21:14:47;28.27;;;11.45;;
7703;SDS011;3894;49.700;10.770;2022-11-06T21:17:13;24.83;;;11.00;;
7703;SDS011;3894;49.700;10.770;2022-11-06T21:19:38;24.52;;;11.60;;
7703;SDS011;3894;49.700;10.770;2022-11-06T21:22:04;25.38;;;10.63;;
7703;SDS011;3894;49.700;10.770;2022-11-06T21:24:29;25.13;;;10.20;;
7703;SDS011;3894;49.700;10.770;2022-11-06T21:26:55;24.42;;;10.27;;
7703;SDS011;3894;49.700;10.770;2022-11-06T21:29:21;24.80;;;10.05;;
7703;SDS011;3894;49.700;10.770;2022-11-06T21:31:48;23.08;;;10.27;;
7703;SDS011;3894;49.700;10.770;2022-11-06T21:34:14;22.90;;;10.57;;
7703;SDS011;3894;49.700;10.770;2022-11-06T21:36:40;20.35;;;10.18;;
7703;SDS011;3894;49.700;10.770;2022-11-06T21:39:07;25.52;;;10.63;;
7703;SDS011;3894;49.700;10.770;2022-11-06T21:41:38;23.38;;;9.02;;
7703;SDS011;3894;49.700;10.770;2022-11-06T21:44:04;23.15;;;10.18;;
7703;SDS011;3894;49.700;10.770;2022-11-06T21:46:30;22.85;;;9.60;;
7703;SDS011;3894;49.700;10.770;2022-11-06T21:48:57;24.17;;;11.30;;
7703;SDS011;3894;49.700;10.770;2022-11-06T21:51:24;22.95;;;10.73;;
7703;SDS011;3894;49.700;10.770;2022-11-06T21:53:51;22.38;;;10.00;;
7703;SDS011;3894;49.700;10.770;2022-11-06T21:56:35;24.25;;;11.52;;
7703;SDS011;3894;49.700;10.770;2022-11-06T21:59:02;22.20;;;10.20;;
7703;SDS011;3894;49.700;10.770;2022-11-06T22:01:31;25.73;;;11.07;;
7703;SDS011;3894;49.700;10.770;2022-11-06T22:03:57;24.10;;;10.90;;
7703;SDS011;3894;49.700;10.770;2022-11-06T22:06:23;19.70;;;9.18;;
7703;SDS011;3894;49.700;10.770;2022-11-06T22:08:52;22.98;;;10.75;;
7703;SDS011;3894;49.700;10.770;2022-11-06T22:11:20;21.08;;;10.18;;
7703;SDS011;3894;49.700;10.770;2022-11-06T22:13:55;24.42;;;10.68;;
7703;SDS011;3894;49.700;10.770;2022-11-06T22:16:24;19.65;;;9.68;;
7703;SDS011;3894;49.700;10.770;2022-11-06T22:18:51;24.75;;;10.80;;
7703;SDS011;3894;49.700;10.770;2022-11-06T22:21:18;22.83;;;11.35;;
7703;SDS011;3894;49.700;10.770;2022-11-06T22:23:46;22.38;;;10.50;;
7703;SDS011;3894;49.700;10.770;2022-11-06T22:26:13;22.60;;;10.88;;
7703;SDS011;3894;49.700;10.770;2022-11-06T22:28:41;20.08;;;9.02;;
7703;SDS011;3894;49.700;10.770;2022-11-06T22:31:08;18.83;;;9.88;;
7703;SDS011;3894;49.700;10.770;2022-11-06T22:33:34;22.90;;;10.00;;
7703;SDS011;3894;49.700;10.770;2022-11-06T22:36:04;25.55;;;10.75;;
7703;SDS011;3894;49.700;10.770;2022-11-06T22:38:39;23.75;;;10.52;;
7703;SDS011;3894;49.700;10.770;2022-11-06T22:41:07;21.08;;;9.98;;
7703;SDS011;3894;49.700;10.770;2022-11-06T22:43:34;22.90;;;9.57;;
7703;SDS011;3894;49.700;10.770;2022-11-06T22:46:01;25.20;;;10.80;;
7703;SDS011;3894;49.700;10.770;2022-11-06T22:48:28;24.60;;;11.63;;
7703;SDS011;3894;49.700;10.770;2022-11-06T22:50:55;27.40;;;13.18;;
7703;SDS011;3894;49.700;10.770;2022-11-06T22:53:25;26.33;;;11.35;;
7703;SDS011;3894;49.700;10.770;2022-11-06T22:55:53;25.83;;;12.30;;
7703;SDS011;3894;49.700;10.770;2022-11-06T22:58:20;23.92;;;11.95;;
7703;SDS011;3894;49.700;10.770;2022-11-06T23:00:47;23.02;;;10.07;;
7703;SDS011;3894;49.700;10.770;2022-11-06T23:03:14;24.77;;;10.48;;
7703;SDS011;3894;49.700;10.770;2022-11-06T23:05:40;22.20;;;10.07;;
7703;SDS011;3894;49.700;10.770;2022-11-06T23:08:05;19.42;;;9.55;;
7703;SDS011;3894;49.700;10.770;2022-11-06T23:10:31;21.15;;;9.98;;
7703;SDS011;3894;49.700;10.770;2022-11-06T23:12:58;23.25;;;9.38;;
7703;SDS011;3894;49.700;10.770;2022-11-06T23:15:24;21.30;;;10.23;;
7703;SDS011;3894;49.700;10.770;2022-11-06T23:17:50;25.02;;;10.88;;
7703;SDS011;3894;49.700;10.770;2022-11-06T23:20:17;18.67;;;9.57;;
7703;SDS011;3894;49.700;10.770;2022-11-06T23:22:44;21.08;;;8.95;;
7703;SDS011;3894;49.700;10.770;2022-11-06T23:25:10;22.85;;;9.85;;
7703;SDS011;3894;49.700;10.770;2022-11-06T23:27:37;21.52;;;9.68;;
7703;SDS011;3894;49.700;10.770;2022-11-06T23:30:06;22.80;;;10.10;;
7703;SDS011;3894;49.700;10.770;2022-11-06T23:32:33;25.77;;;11.23;;
7703;SDS011;3894;49.700;10.770;2022-11-06T23:35:00;20.63;;;9.52;;
7703;SDS011;3894;49.700;10.770;2022-11-06T23:37:26;21.85;;;9.20;;
7703;SDS011;3894;49.700;10.770;2022-11-06T23:39:52;22.15;;;8.57;;
7703;SDS011;3894;49.700;10.770;2022-11-06T23:42:18;21.42;;;9.35;;
7703;SDS011;3894;49.700;10.770;2022-11-06T23:44:45;21.52;;;9.13;;
7703;SDS011;3894;49.700;10.770;2022-11-06T23:47:31;21.10;;;9.75;;
7703;SDS011;3894;49.700;10.770;2022-11-06T23:49:58;18.08;;;8.57;;
7703;SDS011;3894;49.700;10.770;2022-11-06T23:52:24;20.05;;;9.48;;
7703;SDS011;3894;49.700;10.770;2022-11-06T23:54:51;19.00;;;8.82;;
7703;SDS011;3894;49.700;10.770;2022-11-06T23:57:16;22.33;;;10.05;;
7703;SDS011;3894;49.700;10.770;2022-11-06T23:59:42;21.15;;;9.65;;
